Time;durP1;ratioP1;P1;durP2;ratioP2;P2;SDS_P1;SDS_P2;PMS_P1;PMS_P2;Temp;Humidity;BMP_temperature;BMP_pressure;BME280_temperature;BME280_humidity;BME280_pressure;Samples;Min_cycle;Max_cycle;Signal;HPM_P1;HPM_P2
2023/12/03 00:00:12;;;;;;;15.55;10.88;;;0.90;99.90;;;;;;5033280;28;20057;-70
2023/12/03 00:02:38;;;;;;;15.05;10.40;;;0.90;99.90;;;;;;5032164;28;20052;-72
2023/12/03 00:05:05;;;;;;;15.82;10.63;;;0.90;99.90;;;;;;5032921;28;20041;-69
2023/12/03 00:07:32;;;;;;;15.55;11.25;;;0.90;99.90;;;;;;5032212;28;20050;-69
2023/12/03 00:09:59;;;;;;;17.20;11.75;;;0.80;99.90;;;;;;5032855;28;20046;-70
2023/12/03 00:12:25;;;;;;;15.80;11.07;;;1.40;99.90;;;;;;5032312;28;20103;-70
2023/12/03 00:14:50;;;;;;;15.13;11.13;;;0.90;99.90;;;;;;5032856;28;20049;-69
2023/12/03 00:17:16;;;;;;;17.30;11.32;;;0.80;99.90;;;;;;5032132;28;20399;-69
2023/12/03 00:19:42;;;;;;;18.27;11.65;;;0.80;99.90;;;;;;5032828;28;20538;-73
2023/12/03 00:22:08;;;;;;;17.42;12.02;;;0.80;99.90;;;;;;5031973;28;20049;-69
2023/12/03 00:24:34;;;;;;;16.05;11.73;;;0.70;99.90;;;;;;5032823;28;20128;-69
2023/12/03 00:27:00;;;;;;;19.10;12.15;;;0.80;99.90;;;;;;5031527;28;20438;-69
2023/12/03 00:29:26;;;;;;;18.58;12.45;;;0.80;99.90;;;;;;5032937;28;20116;-69
2023/12/03 00:31:54;;;;;;;19.83;12.43;;;0.70;99.90;;;;;;5032509;28;20050;-69
2023/12/03 00:34:20;;;;;;;21.73;12.30;;;1.00;99.90;;;;;;5032525;28;20060;-72
2023/12/03 00:36:46;;;;;;;22.33;13.95;;;0.60;99.90;;;;;;5032036;28;20033;-73
2023/12/03 00:39:11;;;;;;;20.52;12.63;;;0.70;99.90;;;;;;5015420;28;20049;-69
2023/12/03 00:41:38;;;;;;;18.00;11.85;;;0.60;99.90;;;;;;5032652;28;20103;-69
2023/12/03 00:44:04;;;;;;;17.40;11.70;;;0.60;99.90;;;;;;5032362;28;20048;-70
2023/12/03 00:46:30;;;;;;;18.40;12.10;;;0.70;99.90;;;;;;5031575;28;20098;-70
2023/12/03 00:48:55;;;;;;;17.73;12.02;;;0.60;99.90;;;;;;5031082;28;20155;-70
2023/12/03 00:51:21;;;;;;;18.00;11.90;;;0.50;99.90;;;;;;5031393;28;20136;-70
2023/12/03 00:53:47;;;;;;;18.48;12.18;;;0.50;99.90;;;;;;5031374;28;20045;-73
2023/12/03 00:56:12;;;;;;;20.42;12.80;;;0.40;99.90;;;;;;5031245;28;20172;-70
2023/12/03 00:58:38;;;;;;;15.48;11.63;;;0.60;99.90;;;;;;5031141;28;20041;-69
2023/12/03 01:01:05;;;;;;;17.80;11.85;;;0.40;99.90;;;;;;5032162;28;20045;-70
2023/12/03 01:03:31;;;;;;;18.05;11.65;;;0.30;99.90;;;;;;5032245;28;20057;-70
2023/12/03 01:05:57;;;;;;;18.30;12.23;;;0.30;99.90;;;;;;5031143;28;20045;-70
2023/12/03 01:08:23;;;;;;;18.42;11.90;;;0.40;99.90;;;;;;5032568;28;20067;-70
2023/12/03 01:10:48;;;;;;;20.42;12.00;;;0.30;99.90;;;;;;5032407;28;20042;-74
2023/12/03 01:13:14;;;;;;;17.10;10.90;;;0.30;99.90;;;;;;5032212;28;20045;-70
2023/12/03 01:15:40;;;;;;;15.82;11.35;;;1.10;99.90;;;;;;5032583;28;20525;-70
2023/12/03 01:18:05;;;;;;;16.70;10.98;;;0.40;99.90;;;;;;5030999;28;20042;-70
2023/12/03 01:20:31;;;;;;;15.82;11.07;;;0.30;99.90;;;;;;5031517;28;20399;-70
2023/12/03 01:22:57;;;;;;;19.13;11.30;;;0.20;99.90;;;;;;5031872;28;20053;-69
2023/12/03 01:25:23;;;;;;;18.05;11.55;;;0.30;99.90;;;;;;5032184;28;20372;-69
2023/12/03 01:27:48;;;;;;;16.42;10.57;;;0.20;99.90;;;;;;5032091;28;20106;-69
2023/12/03 01:30:14;;;;;;;14.20;10.18;;;0.30;99.90;;;;;;5014484;28;20041;-69
2023/12/03 01:32:40;;;;;;;15.63;10.52;;;0.20;99.90;;;;;;5032003;28;20514;-70
2023/12/03 01:35:06;;;;;;;13.90;9.88;;;0.20;99.90;;;;;;5030687;28;20491;-69
2023/12/03 01:37:32;;;;;;;13.68;9.38;;;0.20;99.90;;;;;;5030841;28;20045;-69
2023/12/03 01:39:58;;;;;;;15.05;9.68;;;0.70;99.90;;;;;;5031596;28;20045;-69
2023/12/03 01:42:27;;;;;;;14.43;9.70;;;0.20;99.90;;;;;;5032426;28;20411;-69
2023/12/03 01:44:53;;;;;;;13.93;9.23;;;0.60;99.90;;;;;;5032014;28;20132;-69
2023/12/03 01:47:20;;;;;;;14.98;9.75;;;0.10;99.90;;;;;;5030831;28;20542;-70
2023/12/03 01:49:47;;;;;;;14.43;9.25;;;0.30;99.90;;;;;;5032738;28;20056;-70
2023/12/03 01:52:14;;;;;;;15.75;9.95;;;0.10;99.90;;;;;;5034257;28;20572;-69
2023/12/03 01:54:43;;;;;;;11.32;8.82;;;0.10;99.90;;;;;;5036115;28;20368;-70
2023/12/03 01:57:09;;;;;;;12.85;9.05;;;0.10;99.90;;;;;;5034274;28;20413;-70
2023/12/03 01:59:35;;;;;;;11.45;8.65;;;0.10;99.90;;;;;;5035663;28;20091;-70
2023/12/03 02:02:04;;;;;;;13.82;8.63;;;0.00;99.90;;;;;;5035241;28;20045;-70
2023/12/03 02:04:30;;;;;;;13.00;8.80;;;0.10;99.90;;;;;;5034409;28;20487;-70
2023/12/03 02:06:56;;;;;;;12.93;8.68;;;0.10;99.90;;;;;;5017933;28;20045;-70
2023/12/03 02:09:23;;;;;;;12.50;8.02;;;0.00;99.90;;;;;;5035266;28;20045;-70
2023/12/03 02:11:49;;;;;;;13.93;8.60;;;0.00;99.90;;;;;;5035510;28;20120;-70
2023/12/03 02:14:14;;;;;;;11.63;8.15;;;0.10;99.90;;;;;;5033901;28;20045;-70
2023/12/03 02:16:47;;;;;;;13.38;8.60;;;0.00;99.90;;;;;;5035405;28;20415;-70
2023/12/03 02:19:14;;;;;;;13.00;9.13;;;0.20;99.90;;;;;;5033935;28;20037;-70
2023/12/03 02:21:39;;;;;;;11.45;8.65;;;0.00;99.90;;;;;;5035299;28;20048;-70
2023/12/03 02:24:05;;;;;;;11.70;7.88;;;0.20;99.90;;;;;;5034899;28;20045;-70
2023/12/03 02:26:31;;;;;;;12.93;8.55;;;0.00;99.90;;;;;;5033970;28;20535;-70
2023/12/03 02:28:56;;;;;;;13.10;8.50;;;0.00;99.90;;;;;;5035114;28;20053;-71
2023/12/03 02:31:24;;;;;;;14.38;8.52;;;0.00;99.90;;;;;;5034410;28;20045;-69
2023/12/03 02:34:11;;;;;;;11.73;7.72;;;0.00;99.90;;;;;;5033296;28;20069;-69
2023/12/03 02:36:38;;;;;;;14.07;8.82;;;0.60;99.90;;;;;;5033550;28;20046;-69
2023/12/03 02:39:03;;;;;;;10.48;8.10;;;0.50;99.90;;;;;;5034269;28;20136;-72
2023/12/03 02:41:29;;;;;;;11.57;7.68;;;0.20;99.90;;;;;;5034823;28;20128;-69
2023/12/03 02:43:55;;;;;;;11.55;8.07;;;-0.10;99.90;;;;;;5034714;28;20435;-68
2023/12/03 02:46:21;;;;;;;11.30;7.70;;;-0.10;99.90;;;;;;5034153;28;20049;-70
2023/12/03 02:48:47;;;;;;;12.13;7.55;;;-0.10;99.90;;;;;;5033794;28;20087;-69
2023/12/03 02:51:12;;;;;;;12.07;8.40;;;-0.10;99.90;;;;;;5016697;28;20076;-70
2023/12/03 02:53:43;;;;;;;10.75;7.95;;;0.00;99.90;;;;;;5033571;28;20045;-70
2023/12/03 02:56:11;;;;;;;11.07;7.68;;;-0.10;99.90;;;;;;5034433;28;20052;-70
2023/12/03 02:58:36;;;;;;;9.70;6.53;;;-0.10;99.90;;;;;;5034328;28;20046;-70
2023/12/03 03:01:02;;;;;;;10.40;7.57;;;-0.10;99.90;;;;;;5034224;28;20052;-69
2023/12/03 03:03:28;;;;;;;12.20;7.97;;;-0.10;99.90;;;;;;5033936;28;20053;-69
2023/12/03 03:05:53;;;;;;;10.57;7.80;;;-0.10;99.90;;;;;;5033601;28;20037;-69
2023/12/03 03:08:19;;;;;;;15.85;8.13;;;0.10;99.90;;;;;;5033746;28;20207;-69
2023/12/03 03:10:45;;;;;;;10.77;8.10;;;-0.10;99.90;;;;;;5034292;28;20045;-69
2023/12/03 03:13:10;;;;;;;10.20;7.60;;;-0.20;99.90;;;;;;5032990;28;20052;-70
2023/12/03 03:15:36;;;;;;;10.68;7.63;;;-0.20;99.90;;;;;;5033149;28;20052;-70
2023/12/03 03:18:01;;;;;;;10.73;7.63;;;-0.20;99.90;;;;;;5034271;28;20045;-70
2023/12/03 03:20:27;;;;;;;9.50;7.13;;;-0.20;99.90;;;;;;5032191;28;20739;-69
2023/12/03 03:22:53;;;;;;;12.55;7.15;;;-0.20;99.90;;;;;;5034038;28;20056;-69
2023/12/03 03:25:19;;;;;;;11.68;7.90;;;-0.20;99.90;;;;;;5033663;28;20041;-69
2023/12/03 03:27:44;;;;;;;9.18;6.88;;;-0.20;99.90;;;;;;5032905;28;20447;-69
2023/12/03 03:30:11;;;;;;;10.55;6.93;;;-0.20;99.90;;;;;;5032597;28;20049;-73
2023/12/03 03:32:36;;;;;;;8.77;6.75;;;-0.20;99.90;;;;;;5033808;28;20057;-69
2023/12/03 03:35:03;;;;;;;8.52;6.57;;;-0.20;99.90;;;;;;5033769;28;20060;-69
2023/12/03 03:37:29;;;;;;;10.43;6.65;;;-0.20;99.90;;;;;;5033403;28;20128;-69
2023/12/03 03:39:54;;;;;;;9.23;6.80;;;0.50;99.90;;;;;;5033851;28;20132;-69
2023/12/03 03:42:20;;;;;;;9.35;6.70;;;0.10;99.90;;;;;;5015795;28;20368;-70
2023/12/03 03:44:47;;;;;;;8.77;6.40;;;-0.20;99.90;;;;;;5016079;28;20045;-69
2023/12/03 03:47:13;;;;;;;9.38;6.80;;;-0.20;99.90;;;;;;5033555;28;20183;-73
2023/12/03 03:49:39;;;;;;;10.45;6.90;;;-0.10;99.90;;;;;;5032454;28;20056;-70
2023/12/03 03:52:06;;;;;;;9.32;6.25;;;-0.20;99.90;;;;;;5033309;28;20508;-69
2023/12/03 03:54:31;;;;;;;8.15;6.15;;;-0.20;99.90;;;;;;5032966;28;20034;-70
2023/12/03 03:56:57;;;;;;;8.77;6.50;;;-0.20;99.90;;;;;;5016204;28;20056;-70
2023/12/03 03:59:23;;;;;;;10.38;6.47;;;-0.20;99.90;;;;;;5032189;28;20545;-69
2023/12/03 04:01:50;;;;;;;10.07;6.43;;;-0.20;99.90;;;;;;5015886;28;20049;-70
2023/12/03 04:04:15;;;;;;;7.35;6.22;;;-0.20;99.90;;;;;;5032032;28;20049;-73
2023/12/03 04:06:44;;;;;;;8.05;6.43;;;-0.30;99.90;;;;;;5015608;28;20475;-70
2023/12/03 04:09:10;;;;;;;8.27;5.88;;;0.20;99.90;;;;;;5032369;28;20496;-70
2023/12/03 04:11:46;;;;;;;8.43;6.20;;;-0.30;99.90;;;;;;5032334;28;20038;-70
2023/12/03 04:14:17;;;;;;;7.90;6.00;;;-0.20;99.90;;;;;;5032155;28;20143;-70
2023/12/03 04:16:43;;;;;;;9.88;5.97;;;-0.30;99.90;;;;;;5033212;28;20045;-70
2023/12/03 04:19:10;;;;;;;8.27;5.93;;;-0.40;99.90;;;;;;5031914;28;20045;-70
2023/12/03 04:21:39;;;;;;;8.05;5.70;;;0.20;99.90;;;;;;5015287;28;20284;-70
2023/12/03 04:24:05;;;;;;;7.97;6.78;;;-0.40;99.90;;;;;;5032835;28;20049;-70
2023/12/03 04:26:31;;;;;;;7.80;6.35;;;-0.30;99.90;;;;;;5032593;28;20053;-70
2023/12/03 04:28:56;;;;;;;8.20;6.53;;;-0.10;99.90;;;;;;5031734;28;20049;-70
2023/12/03 04:31:27;;;;;;;8.30;6.57;;;-0.30;99.90;;;;;;5031321;28;20048;-70
2023/12/03 04:33:54;;;;;;;8.93;6.93;;;-0.30;99.90;;;;;;5014876;28;20057;-70
2023/12/03 04:36:23;;;;;;;9.68;7.25;;;-0.30;99.90;;;;;;5031232;28;20126;-72
2023/12/03 04:38:55;;;;;;;8.38;7.32;;;-0.10;99.90;;;;;;5032936;28;20045;-69
2023/12/03 04:41:21;;;;;;;9.50;7.25;;;-0.30;99.90;;;;;;5032732;28;20455;-73
2023/12/03 04:43:47;;;;;;;10.45;7.80;;;-0.30;99.90;;;;;;5032456;28;20093;-70
2023/12/03 04:46:12;;;;;;;11.63;9.30;;;0.20;99.90;;;;;;5015207;28;20081;-70
2023/12/03 04:48:42;;;;;;;11.20;8.93;;;-0.30;99.90;;;;;;5014774;28;20049;-70
2023/12/03 04:51:10;;;;;;;11.32;9.73;;;-0.30;99.90;;;;;;5032701;28;20052;-69
2023/12/03 04:53:36;;;;;;;10.48;9.20;;;-0.30;99.90;;;;;;5030606;28;20049;-69
2023/12/03 04:56:01;;;;;;;11.52;9.57;;;-0.20;99.90;;;;;;5030906;28;20056;-70
2023/12/03 04:58:27;;;;;;;13.15;10.77;;;-0.20;99.90;;;;;;5032027;28;20128;-70
2023/12/03 05:00:53;;;;;;;12.90;10.45;;;-0.10;99.90;;;;;;5031738;28;20052;-69
2023/12/03 05:03:18;;;;;;;14.40;11.20;;;-0.10;99.90;;;;;;5015001;28;20471;-70
2023/12/03 05:05:44;;;;;;;21.02;12.82;;;-0.10;99.90;;;;;;5032168;28;20045;-69
2023/12/03 05:08:10;;;;;;;19.25;12.63;;;-0.10;99.90;;;;;;5030961;28;20045;-70
2023/12/03 05:10:35;;;;;;;41.88;14.55;;;-0.10;99.90;;;;;;5031075;28;20056;-69
2023/12/03 05:13:01;;;;;;;40.55;15.65;;;-0.10;99.90;;;;;;5030796;28;20085;-69
2023/12/03 05:15:27;;;;;;;23.35;14.80;;;0.00;99.90;;;;;;5032094;28;20100;-70
2023/12/03 05:17:52;;;;;;;40.22;16.70;;;-0.10;99.90;;;;;;5031288;28;20049;-69
2023/12/03 05:20:18;;;;;;;31.35;16.20;;;-0.10;99.90;;;;;;5032213;28;20045;-69
2023/12/03 05:22:44;;;;;;;95.78;19.50;;;-0.10;99.90;;;;;;5014724;28;20133;-70
2023/12/03 05:25:10;;;;;;;78.78;19.70;;;-0.10;99.90;;;;;;5035158;28;20058;-69
2023/12/03 05:27:37;;;;;;;60.58;20.40;;;0.00;99.90;;;;;;5034938;28;20053;-69
2023/12/03 05:30:04;;;;;;;123.93;24.45;;;-0.10;99.90;;;;;;5036187;28;20041;-69
2023/12/03 05:32:29;;;;;;;80.07;23.92;;;-0.10;99.90;;;;;;5035659;28;20050;-70
2023/12/03 05:34:55;;;;;;;56.55;21.25;;;0.60;99.90;;;;;;5034828;28;20587;-69
2023/12/03 05:37:21;;;;;;;37.38;21.40;;;-0.10;99.90;;;;;;5035023;28;20049;-70
2023/12/03 05:39:47;;;;;;;41.30;22.02;;;0.00;99.90;;;;;;5035648;28;20545;-70
2023/12/03 05:42:15;;;;;;;77.95;24.33;;;0.00;99.90;;;;;;5034945;28;20045;-70
2023/12/03 05:44:41;;;;;;;44.33;22.52;;;0.00;99.90;;;;;;5035500;28;20041;-70
2023/12/03 05:47:07;;;;;;;104.85;25.13;;;0.00;99.90;;;;;;5035023;28;20471;-70
2023/12/03 05:49:32;;;;;;;156.15;28.90;;;0.00;99.90;;;;;;5034327;28;20352;-70
2023/12/03 05:51:59;;;;;;;111.45;30.08;;;0.00;99.90;;;;;;5034749;28;20103;-69
2023/12/03 05:54:24;;;;;;;85.00;29.13;;;-0.10;99.90;;;;;;5035931;28;20041;-69
2023/12/03 05:56:50;;;;;;;117.40;30.65;;;0.00;99.90;;;;;;5035323;28;20521;-69
2023/12/03 05:59:16;;;;;;;121.65;32.08;;;0.20;99.90;;;;;;5035646;28;20111;-69
2023/12/03 06:01:42;;;;;;;131.48;35.80;;;0.00;99.90;;;;;;5034198;28;20051;-69
2023/12/03 06:04:07;;;;;;;223.63;42.00;;;0.00;99.90;;;;;;5035733;28;20045;-69
2023/12/03 06:06:36;;;;;;;136.90;35.50;;;0.10;99.90;;;;;;5033796;28;20057;-72
2023/12/03 06:09:04;;;;;;;169.45;37.20;;;0.10;99.90;;;;;;5035485;28;20046;-69
2023/12/03 06:11:32;;;;;;;241.60;43.05;;;0.10;99.90;;;;;;5034373;28;20128;-69
2023/12/03 06:13:58;;;;;;;187.38;40.67;;;0.10;99.90;;;;;;5035448;28;20041;-69
2023/12/03 06:16:23;;;;;;;118.38;35.83;;;0.20;99.90;;;;;;5035527;28;20049;-69
2023/12/03 06:18:49;;;;;;;257.52;45.20;;;0.20;99.90;;;;;;5017370;28;20128;-70
2023/12/03 06:21:15;;;;;;;195.80;39.83;;;0.60;99.90;;;;;;5034038;28;20041;-69
2023/12/03 06:23:41;;;;;;;230.95;40.58;;;0.30;99.90;;;;;;5034776;28;20042;-70
2023/12/03 06:26:07;;;;;;;180.73;38.00;;;0.40;99.90;;;;;;5034031;28;20053;-69
2023/12/03 06:28:33;;;;;;;249.43;43.33;;;0.30;99.90;;;;;;5017642;28;20071;-70
2023/12/03 06:30:59;;;;;;;161.20;36.83;;;0.30;99.90;;;;;;5033791;28;20048;-69
2023/12/03 06:33:25;;;;;;;210.90;40.25;;;0.30;99.90;;;;;;5034911;28;20479;-70
2023/12/03 06:35:52;;;;;;;303.35;48.47;;;0.90;99.90;;;;;;5033936;28;20046;-70
2023/12/03 06:38:18;;;;;;;228.93;41.35;;;0.40;99.90;;;;;;5034012;28;20053;-69
2023/12/03 06:40:45;;;;;;;213.57;39.33;;;0.50;99.90;;;;;;5017187;28;20136;-69
2023/12/03 06:43:11;;;;;;;119.88;33.95;;;0.40;99.90;;;;;;5033714;28;20051;-69
2023/12/03 06:45:37;;;;;;;157.00;33.85;;;0.50;99.90;;;;;;5033686;28;20454;-69
2023/12/03 06:48:03;;;;;;;155.88;33.03;;;0.50;99.90;;;;;;5034530;28;20072;-70
2023/12/03 06:50:29;;;;;;;182.35;34.95;;;0.50;99.90;;;;;;5033727;28;20038;-70
2023/12/03 06:52:55;;;;;;;174.15;34.47;;;0.60;99.90;;;;;;5016627;28;20049;-71
2023/12/03 06:55:20;;;;;;;158.38;33.55;;;0.70;99.90;;;;;;5033838;28;20111;-71
2023/12/03 06:57:46;;;;;;;187.07;33.42;;;0.50;99.90;;;;;;5034275;28;20046;-71
2023/12/03 07:00:12;;;;;;;194.95;34.53;;;0.60;99.90;;;;;;5033654;28;20049;-70
2023/12/03 07:02:38;;;;;;;276.48;41.63;;;0.60;99.90;;;;;;5034626;28;20053;-70
2023/12/03 07:05:04;;;;;;;108.20;29.30;;;0.60;99.90;;;;;;5000076;28;20129;-71
2023/12/03 07:07:30;;;;;;;158.30;32.97;;;0.60;99.90;;;;;;5034487;28;20050;-69
2023/12/03 07:09:56;;;;;;;165.05;33.42;;;0.60;99.90;;;;;;5032974;28;20045;-69
2023/12/03 07:12:21;;;;;;;165.23;31.63;;;0.70;99.90;;;;;;5034306;28;20048;-69
2023/12/03 07:14:47;;;;;;;133.52;32.13;;;0.60;99.90;;;;;;5032671;28;20403;-70
2023/12/03 07:17:13;;;;;;;129.02;31.48;;;0.70;99.90;;;;;;5033079;28;20049;-69
2023/12/03 07:19:45;;;;;;;144.98;30.73;;;0.70;99.90;;;;;;5033101;28;20087;-70
2023/12/03 07:22:12;;;;;;;132.77;29.45;;;0.70;99.90;;;;;;5033358;28;20133;-73
2023/12/03 07:24:38;;;;;;;117.45;31.02;;;0.80;99.90;;;;;;5032693;28;20053;-69
2023/12/03 07:27:04;;;;;;;136.50;29.15;;;0.80;99.90;;;;;;5033355;28;20219;-70
2023/12/03 07:29:30;;;;;;;114.60;27.45;;;0.80;99.90;;;;;;5032818;28;20068;-70
2023/12/03 07:31:56;;;;;;;109.28;27.95;;;0.80;99.90;;;;;;5032420;28;20046;-70
2023/12/03 07:34:22;;;;;;;104.53;25.90;;;0.80;99.90;;;;;;5032121;28;20055;-70
2023/12/03 07:36:47;;;;;;;109.63;25.88;;;0.90;99.90;;;;;;5033333;28;20053;-70
2023/12/03 07:39:13;;;;;;;119.10;27.50;;;0.80;99.90;;;;;;5032582;28;20041;-70
2023/12/03 07:41:39;;;;;;;143.30;27.52;;;0.80;99.90;;;;;;5033501;28;20045;-70
2023/12/03 07:44:04;;;;;;;142.07;28.80;;;0.80;99.90;;;;;;5032880;28;20188;-71
2023/12/03 07:46:32;;;;;;;137.52;29.67;;;1.00;99.90;;;;;;5032666;28;20119;-69
2023/12/03 07:48:59;;;;;;;94.47;26.17;;;1.20;99.90;;;;;;5033016;28;20045;-70
2023/12/03 07:51:24;;;;;;;70.13;25.10;;;0.90;99.90;;;;;;5032251;28;20041;-71
2023/12/03 07:53:50;;;;;;;90.85;27.40;;;0.90;99.90;;;;;;5032194;28;20057;-71
2023/12/03 07:56:16;;;;;;;70.55;26.23;;;1.00;99.90;;;;;;5032927;28;20490;-71
2023/12/03 07:58:41;;;;;;;83.43;25.95;;;1.00;99.90;;;;;;5032259;28;20111;-70
2023/12/03 08:01:07;;;;;;;73.50;26.23;;;1.20;99.90;;;;;;5033062;28;20342;-71
2023/12/03 08:03:33;;;;;;;67.32;24.00;;;1.00;99.90;;;;;;5033233;28;20042;-70
2023/12/03 08:05:58;;;;;;;88.78;26.98;;;1.10;99.90;;;;;;5031350;28;20171;-69
2023/12/03 08:08:24;;;;;;;81.82;26.95;;;1.10;99.90;;;;;;5033396;28;20049;-69
2023/12/03 08:10:50;;;;;;;74.03;25.55;;;1.00;99.90;;;;;;5032124;28;20460;-73
2023/12/03 08:13:15;;;;;;;77.15;24.60;;;1.00;99.90;;;;;;5033167;28;20103;-70
2023/12/03 08:15:41;;;;;;;77.07;25.48;;;1.10;99.90;;;;;;5033076;28;20076;-70
2023/12/03 08:18:07;;;;;;;70.95;21.67;;;1.80;99.90;;;;;;5031708;28;20067;-70
2023/12/03 08:20:32;;;;;;;70.38;22.92;;;1.10;99.90;;;;;;5031793;28;20052;-69
2023/12/03 08:22:58;;;;;;;71.13;21.40;;;1.10;99.90;;;;;;5032767;28;20048;-69
2023/12/03 08:25:24;;;;;;;63.25;21.92;;;1.10;99.90;;;;;;5032858;28;20486;-70
2023/12/03 08:27:51;;;;;;;66.80;22.85;;;1.10;99.90;;;;;;5031511;28;20136;-69
2023/12/03 08:30:17;;;;;;;56.75;21.40;;;1.10;99.90;;;;;;5031357;28;20436;-69
2023/12/03 08:32:43;;;;;;;50.40;19.83;;;1.10;99.90;;;;;;5031348;28;20486;-70
2023/12/03 08:35:09;;;;;;;54.70;20.45;;;1.10;99.90;;;;;;5031529;28;20072;-69
2023/12/03 08:37:35;;;;;;;49.83;20.08;;;1.10;99.90;;;;;;5032725;28;20099;-69
2023/12/03 08:40:00;;;;;;;53.38;20.15;;;1.10;99.90;;;;;;5032385;28;20402;-69
2023/12/03 08:42:26;;;;;;;54.50;20.55;;;1.40;99.90;;;;;;5032712;28;20114;-69
2023/12/03 08:44:52;;;;;;;54.10;20.40;;;1.20;99.90;;;;;;5032434;28;20440;-69
2023/12/03 08:47:18;;;;;;;51.38;19.73;;;1.10;99.90;;;;;;5014662;28;20187;-69
2023/12/03 08:49:43;;;;;;;49.60;17.67;;;1.10;99.90;;;;;;5015114;28;20056;-69
2023/12/03 08:52:10;;;;;;;50.05;19.95;;;1.10;99.90;;;;;;5031177;28;20054;-70
2023/12/03 08:54:35;;;;;;;56.17;21.20;;;1.20;99.90;;;;;;5032370;28;20049;-70
2023/12/03 08:57:02;;;;;;;56.63;21.52;;;1.20;99.90;;;;;;5030942;28;20051;-71
2023/12/03 08:59:28;;;;;;;53.00;22.15;;;1.20;99.90;;;;;;5014910;28;20475;-70
2023/12/03 09:01:54;;;;;;;54.53;21.92;;;1.20;99.90;;;;;;5032136;28;20051;-70
2023/12/03 09:04:19;;;;;;;56.35;21.23;;;1.20;99.90;;;;;;4998225;28;20041;-70
2023/12/03 09:06:46;;;;;;;56.00;19.95;;;1.20;99.90;;;;;;5031133;28;20099;-69
2023/12/03 09:09:12;;;;;;;51.97;22.00;;;1.20;99.90;;;;;;5032039;28;20102;-69
2023/12/03 09:11:42;;;;;;;52.50;22.58;;;1.30;99.90;;;;;;5031396;28;20088;-70
2023/12/03 09:14:08;;;;;;;49.67;20.88;;;1.30;99.90;;;;;;5032105;28;20445;-69
2023/12/03 09:16:33;;;;;;;52.13;21.67;;;1.30;99.90;;;;;;5032292;28;20053;-69
2023/12/03 09:18:59;;;;;;;55.00;22.05;;;1.40;99.90;;;;;;5014976;28;20391;-77
2023/12/03 09:21:25;;;;;;;56.90;24.00;;;1.40;99.90;;;;;;5032306;28;20050;-70
2023/12/03 09:23:51;;;;;;;57.50;24.27;;;1.50;99.90;;;;;;5032398;28;20056;-70
2023/12/03 09:26:17;;;;;;;53.95;22.70;;;1.40;99.90;;;;;;4998253;28;20052;-70
2023/12/03 09:28:42;;;;;;;53.67;22.40;;;1.50;99.90;;;;;;5014442;28;20188;-69
2023/12/03 09:31:08;;;;;;;55.47;24.55;;;1.50;99.90;;;;;;5014488;28;20064;-70
2023/12/03 09:33:34;;;;;;;52.92;24.65;;;1.60;99.90;;;;;;5014502;28;20485;-71
2023/12/03 09:36:00;;;;;;;55.58;23.45;;;1.60;99.90;;;;;;5014675;28;20076;-71
2023/12/03 09:38:25;;;;;;;49.60;22.25;;;1.60;99.90;;;;;;5030463;28;20128;-73
2023/12/03 09:40:59;;;;;;;53.28;23.85;;;1.70;99.90;;;;;;5030921;28;20100;-73
2023/12/03 09:43:27;;;;;;;55.97;25.37;;;1.70;99.90;;;;;;5031825;28;20049;-73
2023/12/03 09:45:56;;;;;;;52.38;21.73;;;1.70;99.90;;;;;;5031974;28;20459;-72
2023/12/03 09:48:22;;;;;;;56.50;26.05;;;1.70;99.90;;;;;;5030634;28;20433;-72
2023/12/03 09:50:53;;;;;;;46.65;22.17;;;1.70;99.90;;;;;;5031645;28;20045;-72
2023/12/03 09:53:21;;;;;;;44.15;23.60;;;1.80;99.90;;;;;;5030783;28;20046;-73
2023/12/03 09:55:48;;;;;;;50.60;25.25;;;1.80;99.90;;;;;;5031177;28;20059;-72
2023/12/03 09:58:15;;;;;;;47.33;26.40;;;1.80;99.90;;;;;;5030622;28;20397;-73
2023/12/03 10:00:41;;;;;;;41.80;19.98;;;1.80;99.90;;;;;;5030614;28;20517;-73
2023/12/03 10:03:08;;;;;;;43.47;24.38;;;1.90;99.90;;;;;;4997921;28;20046;-74
2023/12/03 10:05:34;;;;;;;41.92;22.77;;;1.90;99.90;;;;;;5030772;28;20081;-72
2023/12/03 10:08:00;;;;;;;35.92;20.38;;;2.00;99.90;;;;;;5030742;28;20100;-72
2023/12/03 10:10:31;;;;;;;42.70;24.98;;;2.00;99.90;;;;;;5032330;28;20037;-73
2023/12/03 10:12:58;;;;;;;37.88;21.90;;;2.00;99.90;;;;;;5017877;28;20410;-73
2023/12/03 10:15:25;;;;;;;37.92;20.85;;;2.00;99.90;;;;;;5035110;28;20103;-72
2023/12/03 10:17:51;;;;;;;38.22;22.70;;;2.10;99.90;;;;;;5035684;28;20053;-73
2023/12/03 10:20:28;;;;;;;41.40;24.60;;;2.10;99.90;;;;;;5033698;28;20445;-72
2023/12/03 10:23:00;;;;;;;39.70;23.00;;;2.10;99.90;;;;;;5035038;28;20044;-73
2023/12/03 10:25:36;;;;;;;40.05;24.85;;;2.10;99.90;;;;;;5033626;28;20379;-72
2023/12/03 10:28:04;;;;;;;42.85;23.75;;;2.20;99.90;;;;;;5035337;28;20053;-73
2023/12/03 10:30:30;;;;;;;42.45;23.42;;;2.20;99.90;;;;;;5034683;28;20045;-74
2023/12/03 10:32:56;;;;;;;42.28;24.63;;;2.20;99.90;;;;;;5034860;28;20097;-73
2023/12/03 10:35:22;;;;;;;42.28;23.17;;;2.20;99.90;;;;;;5033711;28;20442;-72
2023/12/03 10:37:49;;;;;;;42.00;25.02;;;2.30;99.90;;;;;;5034784;28;20049;-72
2023/12/03 10:40:15;;;;;;;40.08;22.80;;;2.30;99.90;;;;;;5034428;28;20132;-72
2023/12/03 10:42:41;;;;;;;41.55;24.08;;;2.30;99.90;;;;;;5034848;28;20133;-72
2023/12/03 10:45:15;;;;;;;42.20;24.95;;;2.30;99.90;;;;;;5033495;28;20099;-72
2023/12/03 10:47:42;;;;;;;41.67;24.40;;;2.30;99.90;;;;;;5034939;28;20054;-72
2023/12/03 10:50:10;;;;;;;41.45;25.73;;;2.40;99.90;;;;;;5033751;28;20081;-71
2023/12/03 10:52:37;;;;;;;40.05;23.38;;;2.40;99.90;;;;;;5034681;28;20085;-71
2023/12/03 10:55:04;;;;;;;40.55;26.15;;;2.40;99.90;;;;;;5034728;28;20057;-72
2023/12/03 10:57:32;;;;;;;40.38;24.70;;;2.30;99.90;;;;;;5016810;28;20420;-73
2023/12/03 11:00:09;;;;;;;40.20;25.80;;;2.40;99.90;;;;;;5034598;28;20048;-72
2023/12/03 11:03:23;;;;;;;33.53;18.65;;;2.40;99.90;;;;;;5034137;28;20456;-72
2023/12/03 11:05:52;;;;;;;36.45;21.42;;;2.50;99.90;;;;;;5030497;28;20053;-72
2023/12/03 11:08:21;;;;;;;38.40;24.92;;;2.50;99.90;;;;;;5034035;28;20054;-73
2023/12/03 11:10:48;;;;;;;32.78;20.05;;;2.50;99.90;;;;;;5033479;28;20056;-73
2023/12/03 11:13:16;;;;;;;39.25;24.75;;;2.50;99.90;;;;;;5033260;28;20046;-75
2023/12/03 11:15:44;;;;;;;38.95;24.92;;;2.60;99.90;;;;;;5034192;28;20465;-73
2023/12/03 11:18:11;;;;;;;40.28;23.45;;;2.60;99.90;;;;;;5016768;28;20376;-73
2023/12/03 11:20:39;;;;;;;33.35;20.92;;;2.70;99.90;;;;;;5032464;28;20041;-73
2023/12/03 11:23:25;;;;;;;32.63;21.83;;;2.60;99.90;;;;;;5032946;28;20132;-72
2023/12/03 11:26:07;;;;;;;35.92;23.80;;;2.70;99.90;;;;;;5033023;28;20552;-72
2023/12/03 11:28:34;;;;;;;37.08;24.55;;;2.80;99.90;;;;;;5032733;28;20060;-71
2023/12/03 11:30:59;;;;;;;37.85;24.23;;;2.80;99.90;;;;;;5033928;28;20049;-72
2023/12/03 11:33:27;;;;;;;29.88;20.67;;;2.80;99.90;;;;;;5032194;28;20483;-73
2023/12/03 11:35:53;;;;;;;37.67;25.17;;;2.80;99.90;;;;;;5033835;28;20481;-73
2023/12/03 11:38:21;;;;;;;35.30;21.35;;;2.80;99.90;;;;;;5032362;28;20045;-74
2023/12/03 11:40:48;;;;;;;36.45;23.85;;;2.90;99.90;;;;;;5033933;28;20107;-74
2023/12/03 11:43:26;;;;;;;36.35;25.67;;;2.90;99.90;;;;;;5032767;28;20041;-74
2023/12/03 11:45:52;;;;;;;37.65;23.65;;;2.90;99.90;;;;;;5015931;28;20540;-72
2023/12/03 11:48:19;;;;;;;40.05;24.38;;;2.90;99.90;;;;;;5032325;28;20037;-73
2023/12/03 11:50:47;;;;;;;38.30;24.65;;;2.90;99.90;;;;;;5033478;28;20081;-72
2023/12/03 11:53:15;;;;;;;32.88;21.80;;;2.90;99.90;;;;;;5032385;28;20482;-71
2023/12/03 11:55:45;;;;;;;34.10;22.13;;;2.90;99.90;;;;;;5031868;28;20044;-71
2023/12/03 11:58:11;;;;;;;34.10;22.42;;;2.90;99.90;;;;;;5033254;28;20048;-70
2023/12/03 12:00:38;;;;;;;35.95;24.27;;;2.80;99.90;;;;;;5015259;28;20509;-71
2023/12/03 12:03:06;;;;;;;33.47;22.25;;;3.30;99.90;;;;;;5032261;28;20053;-71
2023/12/03 12:05:32;;;;;;;33.08;24.20;;;2.80;99.90;;;;;;5032811;28;20119;-74
2023/12/03 12:08:03;;;;;;;34.75;22.90;;;2.80;99.90;;;;;;5032070;28;20116;-71
2023/12/03 12:10:31;;;;;;;29.58;19.35;;;2.80;99.90;;;;;;5031861;28;20458;-70
2023/12/03 12:13:01;;;;;;;30.13;21.58;;;2.70;99.90;;;;;;5031841;28;20379;-70
2023/12/03 12:15:26;;;;;;;32.25;20.50;;;2.70;99.90;;;;;;5031356;28;20048;-71
2023/12/03 12:17:53;;;;;;;29.27;20.05;;;2.70;99.90;;;;;;5031850;28;20053;-69
2023/12/03 12:20:22;;;;;;;29.83;18.75;;;2.90;99.90;;;;;;5031540;28;20049;-70
2023/12/03 12:22:49;;;;;;;30.83;21.92;;;2.60;99.90;;;;;;5030954;28;20049;-71
2023/12/03 12:25:15;;;;;;;27.67;17.00;;;2.70;99.90;;;;;;5032630;28;20122;-75
2023/12/03 12:27:42;;;;;;;29.67;20.92;;;2.70;99.90;;;;;;5032709;28;20085;-73
2023/12/03 12:30:08;;;;;;;34.00;23.25;;;2.70;99.90;;;;;;5033073;28;20057;-74
2023/12/03 12:32:34;;;;;;;28.85;20.25;;;2.60;99.90;;;;;;5032061;28;20376;-74